Time;durP1;ratioP1;P1;durP2;ratioP2;P2;SDS_P1;SDS_P2;PMS_P1;PMS_P2;Temp;Humidity;BMP_temperature;BMP_pressure;BME280_temperature;BME280_humidity;BME280_pressure;Samples;Min_cycle;Max_cycle;Signal;HPM_P1;HPM_P2
2023/01/10 00:02:11;;;;;;;37.07;17.53;;;;;;;4.07;100.00;93878.34;5018171;28;20943;-76
2023/01/10 00:04:38;;;;;;;34.77;17.33;;;;;;;3.97;100.00;93899.28;5016617;28;20282;-76
2023/01/10 00:07:05;;;;;;;35.10;17.60;;;;;;;4.00;100.00;93875.75;5017160;28;20202;-81
2023/01/10 00:09:31;;;;;;;36.80;17.53;;;;;;;4.07;100.00;93865.47;5016770;28;20191;-76
2023/01/10 00:14:44;;;;;;;35.17;17.70;;;;;;;4.12;100.00;93884.47;5022024;28;20214;-84
2023/01/10 00:17:11;;;;;;;37.70;17.83;;;;;;;4.05;100.00;93901.66;5013391;28;20206;-80
2023/01/10 00:19:38;;;;;;;37.23;18.33;;;;;;;4.14;100.00;93863.69;5019021;28;20660;-78
2023/01/10 00:22:21;;;;;;;32.13;16.97;;;;;;;4.00;100.00;93879.13;5024454;28;20194;-79
2023/01/10 00:24:48;;;;;;;31.87;16.57;;;;;;;3.98;100.00;93862.31;5019311;28;20745;-81
2023/01/10 00:27:21;;;;;;;39.80;17.77;;;;;;;4.01;100.00;93867.06;5020970;28;20196;-81
2023/01/10 00:29:51;;;;;;;37.80;17.47;;;;;;;3.90;100.00;93845.31;5019366;28;20189;-81
2023/01/10 00:32:18;;;;;;;36.10;17.57;;;;;;;3.93;100.00;93860.31;5022365;28;20226;-78
2023/01/10 00:34:45;;;;;;;35.00;16.60;;;;;;;3.82;100.00;93860.91;5016209;28;20278;-78
2023/01/10 00:37:12;;;;;;;34.10;17.37;;;;;;;3.81;100.00;93867.03;5016420;28;20537;-78
2023/01/10 00:39:39;;;;;;;33.80;16.77;;;;;;;3.82;100.00;93855.78;5018642;28;20199;-79
2023/01/10 00:44:52;;;;;;;33.53;17.17;;;;;;;3.89;100.00;93766.66;5022836;28;20300;-79
2023/01/10 00:47:19;;;;;;;33.83;16.97;;;;;;;3.79;100.00;93834.81;5022050;28;20234;-79
2023/01/10 00:49:45;;;;;;;33.27;17.10;;;;;;;3.80;100.00;93738.78;5019180;28;20199;-77
2023/01/10 00:52:12;;;;;;;31.10;16.13;;;;;;;3.68;100.00;93877.28;5022818;28;20216;-77
2023/01/10 00:54:39;;;;;;;31.03;16.73;;;;;;;3.68;100.00;93832.84;5020747;28;20215;-78
2023/01/10 00:57:06;;;;;;;33.83;16.50;;;;;;;3.64;100.00;93873.53;5025984;28;20198;-78
2023/01/10 00:59:33;;;;;;;32.43;16.60;;;;;;;3.64;100.00;93829.84;5019690;28;20690;-77
2023/01/10 01:02:01;;;;;;;29.67;15.37;;;;;;;3.66;100.00;93845.09;5020719;28;20211;-78
2023/01/10 01:04:32;;;;;;;31.80;16.30;;;;;;;3.73;100.00;93808.13;5027715;28;20536;-78
2023/01/10 01:06:59;;;;;;;33.57;16.17;;;;;;;3.74;100.00;93834.63;5027345;28;20183;-77
2023/01/10 01:09:26;;;;;;;35.47;16.87;;;;;;;3.77;100.00;93821.38;5018035;28;20200;-79
2023/01/10 01:11:54;;;;;;;30.67;15.93;;;;;;;3.84;100.00;93788.75;5013607;28;20231;-80
2023/01/10 01:14:21;;;;;;;29.67;15.63;;;;;;;3.83;100.00;93857.38;5015863;28;20202;-78
2023/01/10 01:16:48;;;;;;;29.97;16.70;;;;;;;3.83;100.00;93811.13;5020900;28;20222;-78
2023/01/10 01:19:17;;;;;;;28.10;16.10;;;;;;;3.94;100.00;93843.94;5023021;28;20213;-78
2023/01/10 01:21:43;;;;;;;31.80;16.40;;;;;;;4.01;100.00;93823.38;5019492;28;20188;-78
2023/01/10 01:24:11;;;;;;;32.10;15.10;;;;;;;3.93;100.00;93806.34;5018412;28;20215;-78
2023/01/10 01:26:38;;;;;;;29.67;15.37;;;;;;;4.06;100.00;93800.44;5017845;28;20224;-78
2023/01/10 01:29:05;;;;;;;30.27;15.30;;;;;;;4.16;100.00;93820.56;5021120;28;20699;-78
2023/01/10 01:31:32;;;;;;;29.67;15.43;;;;;;;4.22;100.00;93801.78;5019655;28;20202;-79
2023/01/10 01:35:35;;;;;;;27.17;15.00;;;;;;;4.25;100.00;93853.59;5126777;27;20549;-78
2023/01/10 01:38:02;;;;;;;29.97;15.67;;;;;;;4.17;100.00;93784.41;5125890;27;20206;-79
2023/01/10 01:40:29;;;;;;;32.47;15.87;;;;;;;4.23;100.00;93811.88;5127851;27;20190;-79
2023/01/10 01:42:56;;;;;;;29.10;15.37;;;;;;;4.18;100.00;93793.69;5123487;27;20204;-79
2023/01/10 01:45:39;;;;;;;29.07;15.27;;;;;;;4.22;100.00;93807.72;5122631;27;20188;-79
2023/01/10 01:48:20;;;;;;;30.10;15.37;;;;;;;4.21;100.00;93795.88;5123534;27;20197;-79
2023/01/10 01:50:53;;;;;;;28.13;15.53;;;;;;;4.25;100.00;93835.59;5123670;27;20194;-79
2023/01/10 01:53:25;;;;;;;28.40;15.10;;;;;;;4.12;100.00;93773.94;5122955;27;20205;-78
2023/01/10 01:55:55;;;;;;;27.70;15.00;;;;;;;4.13;100.00;93814.06;5121996;27;20191;-77
2023/01/10 01:58:29;;;;;;;26.87;15.03;;;;;;;4.04;100.00;93774.13;5124172;27;20199;-78
2023/01/10 02:00:57;;;;;;;29.03;15.03;;;;;;;4.10;100.00;93782.84;5126170;27;20189;-77
2023/01/10 02:03:25;;;;;;;26.60;14.27;;;;;;;4.13;100.00;93767.78;5123713;27;20220;-81
2023/01/10 02:05:53;;;;;;;29.07;15.57;;;;;;;4.13;100.00;93749.78;5124808;28;20196;-82
2023/01/10 02:08:20;;;;;;;27.67;15.83;;;;;;;4.20;100.00;93783.19;5124456;27;20835;-81
2023/01/10 02:10:53;;;;;;;29.17;15.60;;;;;;;4.08;100.00;93801.00;5122859;27;20204;-80
2023/01/10 02:13:23;;;;;;;32.20;15.73;;;;;;;4.12;100.00;93780.84;5124528;28;20189;-80
2023/01/10 02:15:50;;;;;;;27.40;14.77;;;;;;;4.06;100.00;93769.59;5122309;27;21016;-80
2023/01/10 02:18:19;;;;;;;28.90;15.30;;;;;;;3.99;100.00;93766.22;5122180;27;20218;-80
2023/01/10 02:21:00;;;;;;;26.53;14.97;;;;;;;4.03;100.00;93738.34;5125641;27;20225;-82
2023/01/10 02:23:51;;;;;;;23.47;14.27;;;;;;;4.15;100.00;93749.59;5124486;28;20189;-84
2023/01/10 02:26:50;;;;;;;27.43;14.63;;;;;;;4.13;100.00;93751.59;5123114;27;20189;-78
2023/01/10 02:30:02;;;;;;;24.97;14.13;;;;;;;4.22;100.00;93745.22;5121468;27;20208;-78
2023/01/10 02:32:38;;;;;;;27.30;14.43;;;;;;;4.22;100.00;93752.94;5120498;27;20199;-77
2023/01/10 02:35:18;;;;;;;28.07;15.23;;;;;;;4.19;100.00;93727.63;5123454;27;20222;-78
2023/01/10 02:37:54;;;;;;;26.77;14.93;;;;;;;4.26;100.00;93751.56;5124778;27;20642;-77
2023/01/10 02:40:28;;;;;;;26.60;14.67;;;;;;;4.16;100.00;93758.88;5124047;27;20192;-78
2023/01/10 02:43:01;;;;;;;28.03;14.73;;;;;;;4.14;100.00;93735.94;5127726;27;20202;-78
2023/01/10 02:45:31;;;;;;;23.90;13.67;;;;;;;4.22;100.00;93752.94;5117301;27;20196;-77
2023/01/10 02:47:59;;;;;;;29.00;15.73;;;;;;;4.18;100.00;93739.72;5110009;27;20271;-77
2023/01/10 02:50:43;;;;;;;28.47;15.27;;;;;;;4.03;100.00;93744.28;5111071;27;20193;-78
2023/01/10 02:53:15;;;;;;;26.67;14.63;;;;;;;4.02;100.00;93750.41;5108772;27;20236;-78
2023/01/10 02:55:59;;;;;;;27.97;15.30;;;;;;;4.15;100.00;93755.53;5110267;27;20208;-78
2023/01/10 02:58:40;;;;;;;31.07;15.47;;;;;;;4.03;100.00;93738.34;5109508;27;20698;-78
2023/01/10 03:01:14;;;;;;;25.50;14.73;;;;;;;4.14;100.00;93769.38;5114354;27;20188;-78
2023/01/10 03:03:47;;;;;;;28.13;14.83;;;;;;;4.19;100.00;93766.19;5106875;27;20188;-78
2023/01/10 03:06:26;;;;;;;26.40;14.90;;;;;;;4.25;100.00;93773.91;5104168;27;20196;-78
2023/01/10 03:09:02;;;;;;;28.37;14.90;;;;;;;4.31;100.00;93777.44;5110676;27;20235;-77
2023/01/10 03:11:43;;;;;;;27.47;14.47;;;;;;;4.34;100.00;93762.41;5109447;27;20188;-77
2023/01/10 03:14:16;;;;;;;28.03;15.60;;;;;;;4.26;100.00;93754.91;5108398;27;20278;-76
2023/01/10 03:16:48;;;;;;;25.10;13.80;;;;;;;4.22;100.00;93771.72;5112638;27;20198;-78
2023/01/10 03:19:19;;;;;;;24.27;14.47;;;;;;;4.32;100.00;93766.97;5109207;27;20189;-78
2023/01/10 03:21:52;;;;;;;26.27;14.87;;;;;;;4.40;100.00;93773.66;5109797;27;20196;-78
2023/01/10 03:24:24;;;;;;;28.47;15.63;;;;;;;4.37;100.00;93771.50;5109666;27;20187;-78
2023/01/10 03:26:57;;;;;;;24.63;14.13;;;;;;;4.39;100.00;93780.59;5111491;27;20194;-78
2023/01/10 03:29:32;;;;;;;25.07;13.33;;;;;;;4.38;100.00;93765.38;5110237;27;20837;-78
2023/01/10 03:32:04;;;;;;;24.43;13.83;;;;;;;4.40;100.00;93755.66;5111709;27;20185;-77
2023/01/10 03:34:34;;;;;;;26.70;14.27;;;;;;;4.53;100.00;93773.66;5113228;27;20223;-77
2023/01/10 03:37:08;;;;;;;21.50;13.57;;;;;;;4.55;100.00;93762.16;5111851;27;20196;-78
2023/01/10 03:39:44;;;;;;;27.10;13.93;;;;;;;4.51;100.00;93755.03;5105195;27;20687;-78
2023/01/10 03:42:16;;;;;;;21.70;13.07;;;;;;;4.52;100.00;93760.00;5108035;27;20197;-77
2023/01/10 03:44:52;;;;;;;22.63;13.43;;;;;;;4.57;100.00;93756.78;5108801;27;20194;-77
2023/01/10 03:47:26;;;;;;;24.10;13.47;;;;;;;4.65;100.00;93754.00;5107096;27;20213;-77
2023/01/10 03:49:59;;;;;;;23.87;13.77;;;;;;;4.59;100.00;93759.94;5105213;28;20306;-77
2023/01/10 03:52:27;;;;;;;21.77;13.07;;;;;;;4.53;100.00;93751.25;5112448;27;20198;-77
2023/01/10 03:54:54;;;;;;;25.33;14.53;;;;;;;4.61;100.00;93747.69;5110313;27;20226;-77
2023/01/10 03:57:22;;;;;;;23.23;14.03;;;;;;;4.66;100.00;93727.28;5106754;27;21000;-78
2023/01/10 03:59:53;;;;;;;23.63;13.67;;;;;;;4.46;100.00;93669.97;5109295;27;20194;-77
2023/01/10 04:02:20;;;;;;;22.90;14.10;;;;;;;4.68;100.00;93696.19;5108335;27;20640;-78
2023/01/10 04:04:47;;;;;;;22.23;13.70;;;;;;;4.65;100.00;93688.91;5108617;27;20703;-78
2023/01/10 04:07:15;;;;;;;23.10;13.73;;;;;;;4.48;100.00;93680.84;5108598;28;20205;-78
2023/01/10 04:09:42;;;;;;;23.97;14.00;;;;;;;4.46;100.00;93672.56;5110318;27;20271;-77
2023/01/10 04:12:08;;;;;;;25.40;13.73;;;;;;;4.44;100.00;93667.59;5104986;28;20207;-78
2023/01/10 04:14:35;;;;;;;26.10;14.30;;;;;;;4.45;100.00;93669.19;5113368;27;20574;-78
2023/01/10 04:17:03;;;;;;;26.20;15.00;;;;;;;4.47;100.00;93674.13;5105344;27;20253;-78
2023/01/10 04:19:29;;;;;;;29.83;14.73;;;;;;;4.56;100.00;93676.25;5105794;28;20285;-79
2023/01/10 04:21:56;;;;;;;25.37;15.10;;;;;;;4.45;100.00;93684.63;5109770;27;20541;-77
2023/01/10 04:24:25;;;;;;;25.67;14.27;;;;;;;4.58;100.00;93717.22;5104369;28;20198;-78
2023/01/10 04:26:51;;;;;;;25.60;13.93;;;;;;;4.57;100.00;93739.59;5111106;27;20198;-80
2023/01/10 04:29:18;;;;;;;22.83;14.30;;;;;;;4.60;100.00;93753.81;5111632;27;20934;-80
2023/01/10 04:31:45;;;;;;;25.03;13.43;;;;;;;4.74;100.00;93764.84;5108204;27;20287;-80
2023/01/10 04:34:12;;;;;;;26.53;14.13;;;;;;;4.76;100.00;93763.63;5108874;27;20227;-80
2023/01/10 04:36:39;;;;;;;22.53;13.80;;;;;;;4.78;100.00;93773.75;5109895;27;20206;-81
2023/01/10 04:39:06;;;;;;;25.23;14.33;;;;;;;4.77;100.00;93779.88;5111274;27;20198;-79
2023/01/10 04:41:34;;;;;;;24.50;13.93;;;;;;;4.75;100.00;93767.22;5107427;27;20225;-81
2023/01/10 04:44:01;;;;;;;27.83;13.70;;;;;;;4.74;100.00;93755.34;5112747;27;20187;-76
2023/01/10 04:46:28;;;;;;;25.60;14.17;;;;;;;4.85;100.00;93756.50;5106129;27;20543;-76
2023/01/10 04:48:55;;;;;;;26.97;14.30;;;;;;;4.92;100.00;93736.66;5104147;28;20195;-76
2023/01/10 04:51:22;;;;;;;25.43;14.20;;;;;;;4.92;100.00;93721.22;5109154;27;20699;-77
2023/01/10 04:53:48;;;;;;;27.70;15.60;;;;;;;4.90;100.00;93738.66;5107056;27;20194;-76
2023/01/10 04:56:18;;;;;;;28.73;15.70;;;;;;;4.92;100.00;93737.44;5107858;27;20608;-75
2023/01/10 04:58:46;;;;;;;26.67;15.33;;;;;;;4.90;100.00;93751.53;5109061;28;20345;-74
2023/01/10 05:01:15;;;;;;;31.07;15.33;;;;;;;4.95;100.00;93738.81;5108243;27;20201;-75
2023/01/10 05:03:42;;;;;;;28.87;15.43;;;;;;;4.92;100.00;93729.72;5108051;27;20782;-75
2023/01/10 05:06:09;;;;;;;34.03;15.90;;;;;;;4.98;100.00;93728.91;5110103;27;20202;-76
2023/01/10 05:08:36;;;;;;;30.67;15.53;;;;;;;5.02;100.00;93734.44;5104648;28;20289;-75
2023/01/10 05:11:03;;;;;;;28.90;15.47;;;;;;;4.99;100.00;93733.03;5108563;27;20673;-77
2023/01/10 05:13:30;;;;;;;29.07;15.70;;;;;;;5.01;100.00;93723.34;5110575;27;20194;-76
2023/01/10 05:15:58;;;;;;;24.23;14.97;;;;;;;4.97;100.00;93713.66;5108858;27;20689;-76
2023/01/10 05:18:26;;;;;;;28.70;15.47;;;;;;;4.91;100.00;93712.69;5108551;28;20279;-85
2023/01/10 05:20:53;;;;;;;28.40;15.60;;;;;;;4.92;100.00;93696.28;5110266;27;20209;-77
2023/01/10 05:23:20;;;;;;;27.73;15.50;;;;;;;4.96;100.00;93694.06;5109490;28;20213;-74
2023/01/10 05:25:47;;;;;;;24.37;14.10;;;;;;;5.03;100.00;93703.31;5106245;28;20691;-75
2023/01/10 05:28:14;;;;;;;27.20;14.33;;;;;;;5.00;100.00;93708.88;5107827;27;20714;-74
2023/01/10 05:30:40;;;;;;;31.03;14.50;;;;;;;5.01;100.00;93701.97;5104691;28;20214;-74
2023/01/10 05:33:09;;;;;;;28.40;15.27;;;;;;;5.00;100.00;93700.38;5109100;28;20201;-74
2023/01/10 05:35:36;;;;;;;26.53;15.03;;;;;;;5.03;100.00;93720.56;5107796;28;20237;-74
2023/01/10 05:38:02;;;;;;;23.60;14.07;;;;;;;5.07;100.00;93726.88;5107270;28;20202;-75
2023/01/10 05:40:30;;;;;;;27.83;14.77;;;;;;;4.99;100.00;93719.41;5104150;28;20194;-76
2023/01/10 05:42:56;;;;;;;25.50;13.77;;;;;;;5.00;100.00;93734.63;5106249;28;20680;-73
2023/01/10 05:45:23;;;;;;;27.43;14.40;;;;;;;4.99;100.00;93740.00;5084153;28;20202;-75
2023/01/10 05:47:50;;;;;;;27.93;15.33;;;;;;;5.01;100.00;93743.16;5098979;28;20192;-73
2023/01/10 05:50:18;;;;;;;29.17;15.73;;;;;;;5.02;100.00;93727.47;5106643;28;20207;-76
2023/01/10 05:52:45;;;;;;;25.00;14.60;;;;;;;5.01;100.00;93722.56;5104884;28;20204;-76
2023/01/10 05:55:12;;;;;;;29.63;14.53;;;;;;;4.97;100.00;93716.22;5106064;28;20214;-77
2023/01/10 05:57:39;;;;;;;29.57;15.90;;;;;;;4.97;100.00;93718.81;5110000;28;20205;-77
2023/01/10 06:00:07;;;;;;;31.67;16.60;;;;;;;4.98;100.00;93725.53;5105036;28;20264;-76
2023/01/10 06:02:34;;;;;;;32.43;17.50;;;;;;;5.04;100.00;93733.22;5105034;28;20700;-77
2023/01/10 06:05:01;;;;;;;33.57;20.17;;;;;;;5.02;100.00;93729.28;5106442;28;20190;-77
2023/01/10 06:07:30;;;;;;;36.70;19.90;;;;;;;4.97;100.00;93722.16;5084120;28;20205;-75
2023/01/10 06:09:57;;;;;;;37.27;21.70;;;;;;;4.97;100.00;93711.06;5107797;28;20281;-74
2023/01/10 06:12:24;;;;;;;34.57;20.23;;;;;;;4.98;100.00;93723.75;5107905;28;20195;-75
2023/01/10 06:14:51;;;;;;;30.00;17.40;;;;;;;5.03;100.00;93739.38;5104952;28;20219;-75
2023/01/10 06:17:18;;;;;;;33.47;18.73;;;;;;;5.07;100.00;93742.31;5107465;27;20186;-74
2023/01/10 06:19:44;;;;;;;27.77;16.43;;;;;;;5.08;100.00;93728.44;5109614;28;20186;-76
2023/01/10 06:22:11;;;;;;;28.87;16.90;;;;;;;5.15;100.00;93739.50;5109425;27;20196;-74
2023/01/10 06:24:41;;;;;;;28.13;15.37;;;;;;;5.19;100.00;93734.72;5108839;27;20187;-73
2023/01/10 06:27:08;;;;;;;24.93;14.87;;;;;;;5.27;100.00;93737.03;5113429;27;20331;-74
2023/01/10 06:29:34;;;;;;;24.80;14.37;;;;;;;5.31;100.00;93743.38;5109284;27;20219;-75
2023/01/10 06:32:01;;;;;;;25.73;14.67;;;;;;;5.33;100.00;93737.00;5108566;27;20195;-76
2023/01/10 06:34:28;;;;;;;24.90;14.77;;;;;;;5.39;100.00;93725.09;5108004;27;20226;-75
2023/01/10 06:36:55;;;;;;;27.03;15.60;;;;;;;5.33;100.00;93724.13;5108529;27;20751;-75
2023/01/10 06:39:22;;;;;;;28.40;15.87;;;;;;;5.41;100.00;93721.31;5107159;27;20227;-75
2023/01/10 06:41:50;;;;;;;27.43;15.03;;;;;;;5.46;100.00;93726.59;5107962;28;20195;-74
2023/01/10 06:44:17;;;;;;;31.93;15.53;;;;;;;5.43;100.00;93737.31;5108921;27;20200;-73
2023/01/10 06:46:44;;;;;;;25.60;15.10;;;;;;;5.47;100.00;93741.06;5110253;27;20835;-74
2023/01/10 06:49:11;;;;;;;32.07;16.20;;;;;;;5.44;100.00;93738.13;5111113;27;20256;-74
2023/01/10 06:51:38;;;;;;;33.00;17.17;;;;;;;5.38;100.00;93732.03;5107848;28;20196;-74
2023/01/10 06:54:05;;;;;;;34.23;16.13;;;;;;;5.44;100.00;93740.69;5112615;27;20201;-75
2023/01/10 06:56:31;;;;;;;27.90;15.93;;;;;;;5.39;100.00;93725.88;5109394;27;20215;-75
2023/01/10 06:59:00;;;;;;;30.60;16.57;;;;;;;5.48;100.00;93726.41;5110626;27;20195;-75
2023/01/10 07:01:26;;;;;;;27.93;16.23;;;;;;;5.49;100.00;93726.19;5111301;27;20199;-75
2023/01/10 07:03:53;;;;;;;30.53;16.50;;;;;;;5.55;100.00;93720.19;5111152;27;20206;-77
2023/01/10 07:06:20;;;;;;;30.47;16.70;;;;;;;5.59;100.00;93715.41;5108797;27;20501;-74
2023/01/10 07:08:47;;;;;;;27.97;15.77;;;;;;;5.60;100.00;93710.03;5110036;27;20668;-74
2023/01/10 07:11:15;;;;;;;30.03;16.90;;;;;;;5.57;100.00;93714.84;5110391;27;20192;-74
2023/01/10 07:13:42;;;;;;;29.33;16.27;;;;;;;5.58;100.00;93695.78;5110877;27;20702;-74
2023/01/10 07:16:12;;;;;;;28.23;15.77;;;;;;;5.61;100.00;93700.53;5108378;27;20304;-74
2023/01/10 07:18:41;;;;;;;27.20;15.00;;;;;;;5.55;100.00;93701.38;5108083;27;20235;-74
2023/01/10 07:21:08;;;;;;;29.83;15.20;;;;;;;5.53;100.00;93695.66;5107787;27;20203;-74
2023/01/10 07:23:36;;;;;;;25.33;14.87;;;;;;;5.51;100.00;93687.34;5107907;27;20206;-72
2023/01/10 07:26:05;;;;;;;25.40;15.17;;;;;;;5.56;100.00;93695.22;5109975;27;20213;-73
2023/01/10 07:28:33;;;;;;;26.80;16.20;;;;;;;5.55;100.00;93694.44;5111896;27;20206;-72
2023/01/10 07:31:01;;;;;;;26.83;15.77;;;;;;;5.59;100.00;93702.53;5108359;27;21075;-74
2023/01/10 07:33:30;;;;;;;28.77;15.83;;;;;;;5.59;100.00;93689.66;5108976;27;20567;-74
2023/01/10 07:35:56;;;;;;;29.93;16.90;;;;;;;5.57;100.00;93684.69;5113232;27;20215;-75
2023/01/10 07:38:23;;;;;;;35.00;17.70;;;;;;;5.55;100.00;93689.28;5112353;27;20199;-76
2023/01/10 07:40:50;;;;;;;36.83;18.00;;;;;;;5.61;100.00;93678.13;5109897;27;20200;-76
2023/01/10 07:43:17;;;;;;;44.07;21.90;;;;;;;5.68;100.00;93681.41;5110822;27;20207;-75
2023/01/10 07:45:44;;;;;;;40.80;23.00;;;;;;;5.74;100.00;93683.16;5110004;27;20201;-75
2023/01/10 07:48:11;;;;;;;41.53;23.57;;;;;;;5.68;100.00;93680.66;5110002;27;21640;-75
2023/01/10 07:50:39;;;;;;;56.57;29.57;;;;;;;5.69;100.00;93677.06;5112097;27;20685;-79
2023/01/10 07:53:07;;;;;;;42.80;23.93;;;;;;;5.65;100.00;93683.66;5107428;27;20220;-78
2023/01/10 07:55:37;;;;;;;43.30;25.17;;;;;;;5.65;100.00;93674.16;5109793;27;20266;-82
2023/01/10 07:58:05;;;;;;;52.20;24.80;;;;;;;5.71;100.00;93682.81;5113452;27;20194;-81
2023/01/10 08:00:32;;;;;;;41.03;23.93;;;;;;;5.69;100.00;93672.69;5109872;27;20203;-80
2023/01/10 08:02:59;;;;;;;42.17;23.33;;;;;;;5.80;100.00;93675.59;5106529;27;20195;-79
2023/01/10 08:05:26;;;;;;;39.57;22.43;;;;;;;5.76;100.00;93674.44;5114787;27;20243;-78
2023/01/10 08:07:58;;;;;;;39.63;21.63;;;;;;;5.85;100.00;93684.28;5108487;27;20242;-79
2023/01/10 08:10:25;;;;;;;33.53;20.60;;;;;;;5.82;100.00;93681.31;5110832;27;20189;-78
2023/01/10 08:12:52;;;;;;;36.23;19.67;;;;;;;5.87;100.00;93684.06;5112033;27;20249;-78
2023/01/10 08:15:19;;;;;;;34.03;19.87;;;;;;;5.84;100.00;93674.94;5106022;27;20200;-78
2023/01/10 08:17:46;;;;;;;37.70;21.93;;;;;;;5.87;100.00;93677.13;5112817;27;20284;-79
2023/01/10 08:20:13;;;;;;;44.73;23.73;;;;;;;5.89;100.00;93664.03;5096883;27;20218;-77
2023/01/10 08:22:40;;;;;;;44.77;25.07;;;;;;;5.92;100.00;93669.53;5105467;27;20184;-77
2023/01/10 08:25:09;;;;;;;37.57;22.40;;;;;;;5.97;100.00;93663.75;5102370;27;20188;-78
2023/01/10 08:27:35;;;;;;;43.13;24.37;;;;;;;5.99;100.00;93657.38;5110041;27;20565;-78
2023/01/10 08:30:03;;;;;;;43.87;23.77;;;;;;;5.90;100.00;93653.50;5107410;27;20206;-78
2023/01/10 08:32:30;;;;;;;39.17;21.97;;;;;;;5.85;100.00;93639.66;5105365;27;20688;-78
2023/01/10 08:34:57;;;;;;;36.07;20.70;;;;;;;5.84;100.00;93638.84;5110251;27;20224;-77
2023/01/10 08:37:23;;;;;;;40.57;20.77;;;;;;;5.88;100.00;93640.06;5112643;27;20224;-76
2023/01/10 08:39:50;;;;;;;37.17;20.03;;;;;;;5.93;100.00;93642.75;5107121;27;20200;-77
2023/01/10 08:42:18;;;;;;;37.23;20.83;;;;;;;5.99;100.00;93636.75;5112751;27;20202;-77
2023/01/10 08:44:45;;;;;;;38.00;21.60;;;;;;;6.00;100.00;93635.72;5108817;27;20677;-78
2023/01/10 08:47:13;;;;;;;33.03;20.30;;;;;;;6.00;100.00;93637.56;5108761;27;20291;-77
2023/01/10 08:49:40;;;;;;;37.43;21.70;;;;;;;6.03;100.00;93643.03;5112179;27;20569;-76
2023/01/10 08:52:06;;;;;;;40.87;21.63;;;;;;;6.06;100.00;93639.28;5107521;27;20199;-78
2023/01/10 08:54:33;;;;;;;77.03;40.03;;;;;;;6.02;100.00;93633.75;5109665;27;20189;-77
2023/01/10 08:57:00;;;;;;;81.33;40.67;;;;;;;5.83;100.00;93626.19;5109311;27;20221;-77
2023/01/10 08:59:28;;;;;;;103.33;48.83;;;;;;;5.71;100.00;93636.44;5105203;28;20238;-77
2023/01/10 09:01:57;;;;;;;82.23;41.30;;;;;;;5.50;100.00;93640.19;5107635;27;20710;-77
2023/01/10 09:04:25;;;;;;;73.50;40.80;;;;;;;5.31;100.00;93635.19;5110249;27;20207;-79
2023/01/10 09:06:52;;;;;;;86.20;41.80;;;;;;;5.27;100.00;93621.94;5106493;27;20580;-77
2023/01/10 09:09:18;;;;;;;84.43;43.73;;;;;;;5.06;100.00;93627.44;5106253;27;20735;-77
2023/01/10 09:11:45;;;;;;;79.77;40.90;;;;;;;4.83;100.00;93614.34;5109202;27;20202;-75
2023/01/10 09:14:12;;;;;;;69.03;35.97;;;;;;;4.67;100.00;93605.38;5107041;27;20221;-75
2023/01/10 09:16:41;;;;;;;69.47;35.70;;;;;;;4.81;100.00;93622.28;5108891;27;20210;-75
2023/01/10 09:19:08;;;;;;;76.37;40.80;;;;;;;4.81;100.00;93630.03;5112589;27;20242;-75
2023/01/10 09:21:35;;;;;;;80.77;41.67;;;;;;;4.82;100.00;93623.84;5108740;27;20193;-76
2023/01/10 09:24:02;;;;;;;70.70;40.57;;;;;;;4.82;100.00;93620.50;5108970;27;20719;-77
2023/01/10 09:26:28;;;;;;;77.00;39.77;;;;;;;4.69;100.00;93625.72;5111265;28;20205;-76
2023/01/10 09:28:55;;;;;;;76.13;37.83;;;;;;;4.54;100.00;93619.09;5106742;27;20193;-79
2023/01/10 09:31:22;;;;;;;73.93;34.27;;;;;;;4.44;100.00;93623.13;5109563;27;20200;-79
2023/01/10 09:33:50;;;;;;;61.53;33.13;;;;;;;4.29;100.00;93589.94;5111059;27;20224;-79
2023/01/10 09:36:17;;;;;;;82.57;38.67;;;;;;;4.27;100.00;93588.59;5109809;28;20216;-78
2023/01/10 09:38:44;;;;;;;76.50;38.43;;;;;;;4.40;100.00;93606.50;5105557;28;20191;-75
2023/01/10 09:41:22;;;;;;;77.43;39.47;;;;;;;4.40;100.00;93593.66;5110569;28;20200;-77
2023/01/10 09:44:00;;;;;;;76.00;36.03;;;;;;;4.52;100.00;93590.22;5108625;28;20199;-77
2023/01/10 09:46:37;;;;;;;66.50;33.10;;;;;;;4.52;100.00;93579.13;5103988;28;20185;-78
2023/01/10 09:49:15;;;;;;;64.10;32.43;;;;;;;4.68;100.00;93573.47;5105081;28;20205;-77
2023/01/10 09:51:44;;;;;;;59.13;30.90;;;;;;;4.79;100.00;93579.75;5109121;28;20563;-77
2023/01/10 09:54:15;;;;;;;65.93;30.90;;;;;;;4.68;100.00;93581.19;5108359;28;20196;-78
2023/01/10 09:56:42;;;;;;;63.23;33.00;;;;;;;4.71;100.00;93582.56;5112283;27;20216;-77
2023/01/10 09:59:15;;;;;;;74.57;36.70;;;;;;;4.79;100.00;93572.81;5110124;27;20194;-76
2023/01/10 10:01:42;;;;;;;88.60;42.20;;;;;;;4.89;100.00;93562.84;5112473;27;20565;-76
2023/01/10 10:04:20;;;;;;;90.27;41.63;;;;;;;4.74;100.00;93551.28;5105386;27;20217;-76
2023/01/10 10:06:49;;;;;;;88.53;42.63;;;;;;;4.69;100.00;93559.63;5112565;27;20182;-79
2023/01/10 10:09:19;;;;;;;82.23;41.70;;;;;;;4.62;100.00;93560.69;5113067;27;20186;-78
2023/01/10 10:11:56;;;;;;;76.87;36.47;;;;;;;4.45;100.00;93550.88;5111682;27;20197;-79
2023/01/10 10:14:38;;;;;;;69.77;35.03;;;;;;;4.68;100.00;93564.97;5110892;27;20648;-77
2023/01/10 10:17:27;;;;;;;71.50;35.10;;;;;;;4.57;100.00;93556.16;5110424;27;20724;-77
2023/01/10 10:20:14;;;;;;;70.40;36.10;;;;;;;4.63;100.00;93562.25;5112084;27;20195;-77
2023/01/10 10:22:52;;;;;;;81.13;39.23;;;;;;;4.66;100.00;93561.81;5108308;27;20177;-78
2023/01/10 10:25:38;;;;;;;87.27;42.07;;;;;;;4.72;100.00;93555.84;5109975;27;20204;-81
2023/01/10 10:28:22;;;;;;;87.40;40.87;;;;;;;4.78;100.00;93555.00;5110743;27;20189;-78
2023/01/10 10:30:54;;;;;;;83.23;42.43;;;;;;;4.86;100.00;93554.75;5110298;27;20189;-78
2023/01/10 10:33:41;;;;;;;85.23;41.43;;;;;;;4.79;100.00;93543.72;5110952;27;20200;-77
2023/01/10 10:36:15;;;;;;;85.80;41.03;;;;;;;4.64;100.00;93520.09;5114416;27;20693;-74
2023/01/10 10:38:45;;;;;;;87.63;42.53;;;;;;;4.71;100.00;93537.03;5106875;28;20178;-74
2023/01/10 10:41:18;;;;;;;89.47;42.73;;;;;;;4.79;100.00;93541.16;5109875;27;20184;-75
2023/01/10 10:43:47;;;;;;;79.20;40.83;;;;;;;4.79;100.00;93536.00;5112485;27;21660;-76
2023/01/10 10:46:17;;;;;;;72.20;37.83;;;;;;;4.88;100.00;93537.31;5112352;27;20193;-76
2023/01/10 10:48:50;;;;;;;66.03;33.50;;;;;;;4.84;100.00;93521.50;5111762;27;20226;-75
2023/01/10 10:51:23;;;;;;;63.80;33.30;;;;;;;4.70;100.00;93514.91;5109760;27;20626;-77
2023/01/10 10:53:50;;;;;;;69.67;34.03;;;;;;;4.80;100.00;93510.06;5114351;27;20636;-79
2023/01/10 10:56:21;;;;;;;70.07;34.97;;;;;;;4.73;100.00;93516.25;5109595;27;20227;-79
2023/01/10 10:58:52;;;;;;;75.17;36.03;;;;;;;4.68;100.00;93511.72;5114997;27;20195;-81
2023/01/10 11:01:20;;;;;;;78.87;37.80;;;;;;;4.83;100.00;93526.84;5112876;27;20187;-80
2023/01/10 11:04:02;;;;;;;77.27;39.00;;;;;;;4.83;100.00;93521.72;5096211;27;20214;-80
2023/01/10 11:06:37;;;;;;;67.37;33.53;;;;;;;4.81;100.00;93523.72;5095311;27;20290;-80
2023/01/10 11:09:06;;;;;;;74.23;34.03;;;;;;;4.88;100.00;93524.44;5109627;27;20741;-79
2023/01/10 11:11:37;;;;;;;77.40;36.90;;;;;;;4.94;100.00;93516.66;5104629;27;20957;-79
2023/01/10 11:14:07;;;;;;;76.80;35.97;;;;;;;4.87;100.00;93507.44;5108489;27;20199;-80
2023/01/10 11:16:37;;;;;;;75.60;36.23;;;;;;;4.88;100.00;93496.91;5112994;27;20289;-79
2023/01/10 11:19:24;;;;;;;86.03;42.37;;;;;;;4.98;100.00;93492.09;5113186;27;20186;-78
2023/01/10 11:22:19;;;;;;;130.87;66.40;;;;;;;5.09;100.00;93491.38;5096013;27;20911;-78
2023/01/10 11:25:08;;;;;;;136.73;75.23;;;;;;;5.14;100.00;93498.44;5108393;27;20641;-79
2023/01/10 11:27:57;;;;;;;164.40;92.77;;;;;;;5.29;100.00;93498.09;5113373;27;20191;-78
2023/01/10 11:30:35;;;;;;;142.03;77.03;;;;;;;5.23;100.00;93504.91;5108709;28;20210;-78
2023/01/10 11:33:06;;;;;;;107.90;56.03;;;;;;;5.05;100.00;93500.50;5108524;27;20283;-80
2023/01/10 11:35:37;;;;;;;89.03;46.53;;;;;;;5.05;100.00;93492.03;5108345;27;20278;-78
2023/01/10 11:38:06;;;;;;;69.07;37.23;;;;;;;4.88;100.00;93494.34;5115741;27;20219;-78